KSEM/SEM METAR and TAF weather

Enter ICAO airport designator
Station Type Date Time Source
KSEM METAR 2020/04/05 21:35 UTC NOAA

KSEM 052135Z AUTO 22005KT 9SM CLR 28/09 A2997 RMK AO2


Station Type Date Time Source
KSEM Decoded METAR 2020/04/05 21:35 UTC NOAA

Craig Field / Selma, AL, United States (KSEM) 32-21N 086-59W
Apr 05, 2020 - 05:35 PM EDT / 2020.04.05 2135 UTC
Wind: from the SW (220 degrees) at 6 MPH (5 KT):0
Visibility: 9 mile(s):0
Sky conditions: clear
Temperature: 82 F (28 C)
Dew Point: 48 F (9 C)
Relative Humidity: 30%
Pressure (altimeter): 29.97 in. Hg (1014 hPa)
ob: KSEM 052135Z AUTO 22005KT 9SM CLR 28/09 A2997 RMK AO2
cycle: 21

Station Type Date Time Source
KSEM TAF UTC NOAA

Error!

Example: see airport list